Houston, Texas
Traffic Map
Current Weather Conditions
Houston, Texas
Few Clouds
Few Clouds
53°
Feels Like: 53°
Wind Chill: 53° Ceiling: Unl
Heat Index: 53° Visibility: 10mi
Dew Point: 49° Wind: 0mph
Humidity: 86% Direction: ° ()
Pressure: 29.97in Gusts: 0mph
Raw Report DataKIAH 241153Z 00000KT 10SM FEW250 12/09 A2997 RMK AO2 SLP148 T01170094 10144 20111 55001
Traffic Incident Summary
Active as of:
Severity:
Category:
InformationThere was an issue retrieving the traffic information for this location. Please try a different location or try again shortly.
Advertisements
Track Severe Weather on mobile